sensor_id;sensor_type;location;lat;lon;timestamp;P1;durP1;ratioP1;P2;durP2;ratioP2
10725;SDS011;5414;59.782;16.378;2022-11-04T00:01:18;5.77;;;3.80;;
10725;SDS011;5414;59.782;16.378;2022-11-04T00:03:44;18.90;;;5.27;;
10725;SDS011;5414;59.782;16.378;2022-11-04T00:06:10;9.17;;;4.47;;
10725;SDS011;5414;59.782;16.378;2022-11-04T00:08:36;6.80;;;4.87;;
10725;SDS011;5414;59.782;16.378;2022-11-04T00:11:02;17.07;;;5.73;;
10725;SDS011;5414;59.782;16.378;2022-11-04T00:13:48;14.60;;;6.03;;
10725;SDS011;5414;59.782;16.378;2022-11-04T00:16:14;23.97;;;6.83;;
10725;SDS011;5414;59.782;16.378;2022-11-04T00:18:59;13.60;;;6.10;;
10725;SDS011;5414;59.782;16.378;2022-11-04T00:21:26;14.37;;;7.77;;
10725;SDS011;5414;59.782;16.378;2022-11-04T00:24:11;19.43;;;8.57;;
10725;SDS011;5414;59.782;16.378;2022-11-04T00:26:56;15.40;;;8.47;;
10725;SDS011;5414;59.782;16.378;2022-11-04T00:29:41;20.00;;;9.63;;
10725;SDS011;5414;59.782;16.378;2022-11-04T00:32:07;18.30;;;9.77;;
10725;SDS011;5414;59.782;16.378;2022-11-04T00:34:52;20.23;;;9.83;;
10725;SDS011;5414;59.782;16.378;2022-11-04T00:37:18;19.77;;;9.70;;
10725;SDS011;5414;59.782;16.378;2022-11-04T00:39:44;17.77;;;9.73;;
10725;SDS011;5414;59.782;16.378;2022-11-04T00:42:10;22.87;;;10.50;;
10725;SDS011;5414;59.782;16.378;2022-11-04T00:44:36;20.93;;;10.97;;
10725;SDS011;5414;59.782;16.378;2022-11-04T00:47:02;22.70;;;11.50;;
10725;SDS011;5414;59.782;16.378;2022-11-04T00:49:28;22.87;;;11.97;;
10725;SDS011;5414;59.782;16.378;2022-11-04T00:51:54;25.53;;;13.27;;
10725;SDS011;5414;59.782;16.378;2022-11-04T00:54:20;27.77;;;12.77;;
10725;SDS011;5414;59.782;16.378;2022-11-04T00:56:46;26.70;;;12.63;;
10725;SDS011;5414;59.782;16.378;2022-11-04T00:59:13;34.47;;;13.23;;
10725;SDS011;5414;59.782;16.378;2022-11-04T01:01:39;23.67;;;13.50;;
10725;SDS011;5414;59.782;16.378;2022-11-04T01:04:05;25.33;;;13.53;;
10725;SDS011;5414;59.782;16.378;2022-11-04T01:06:31;19.37;;;12.00;;
10725;SDS011;5414;59.782;16.378;2022-11-04T01:08:58;22.13;;;12.27;;
10725;SDS011;5414;59.782;16.378;2022-11-04T01:11:25;26.17;;;13.57;;
10725;SDS011;5414;59.782;16.378;2022-11-04T01:13:52;19.77;;;12.17;;
10725;SDS011;5414;59.782;16.378;2022-11-04T01:16:18;24.50;;;13.83;;
10725;SDS011;5414;59.782;16.378;2022-11-04T01:18:46;24.67;;;13.10;;
10725;SDS011;5414;59.782;16.378;2022-11-04T01:21:12;25.47;;;12.87;;
10725;SDS011;5414;59.782;16.378;2022-11-04T01:23:39;21.57;;;13.30;;
10725;SDS011;5414;59.782;16.378;2022-11-04T01:26:12;24.23;;;13.40;;
10725;SDS011;5414;59.782;16.378;2022-11-04T01:28:39;26.53;;;14.53;;
10725;SDS011;5414;59.782;16.378;2022-11-04T01:31:05;20.90;;;13.30;;
10725;SDS011;5414;59.782;16.378;2022-11-04T01:33:31;24.27;;;14.10;;
10725;SDS011;5414;59.782;16.378;2022-11-04T01:35:58;20.13;;;12.97;;
10725;SDS011;5414;59.782;16.378;2022-11-04T01:38:24;21.00;;;12.80;;
10725;SDS011;5414;59.782;16.378;2022-11-04T01:40:50;22.70;;;13.07;;
10725;SDS011;5414;59.782;16.378;2022-11-04T01:43:17;25.37;;;13.20;;
10725;SDS011;5414;59.782;16.378;2022-11-04T01:45:43;20.97;;;12.37;;
10725;SDS011;5414;59.782;16.378;2022-11-04T01:48:12;20.40;;;12.53;;
10725;SDS011;5414;59.782;16.378;2022-11-04T01:50:41;21.50;;;12.37;;
10725;SDS011;5414;59.782;16.378;2022-11-04T01:53:14;21.83;;;12.80;;
10725;SDS011;5414;59.782;16.378;2022-11-04T01:55:42;18.70;;;12.77;;
10725;SDS011;5414;59.782;16.378;2022-11-04T01:58:11;18.67;;;11.73;;
10725;SDS011;5414;59.782;16.378;2022-11-04T02:00:39;16.63;;;11.10;;
10725;SDS011;5414;59.782;16.378;2022-11-04T02:06:11;22.70;;;11.67;;
10725;SDS011;5414;59.782;16.378;2022-11-04T02:08:38;18.53;;;10.47;;
10725;SDS011;5414;59.782;16.378;2022-11-04T02:11:05;17.53;;;11.07;;
10725;SDS011;5414;59.782;16.378;2022-11-04T02:13:32;19.87;;;11.00;;
10725;SDS011;5414;59.782;16.378;2022-11-04T02:18:53;17.50;;;10.93;;
10725;SDS011;5414;59.782;16.378;2022-11-04T02:21:29;17.73;;;10.30;;
10725;SDS011;5414;59.782;16.378;2022-11-04T02:37:11;19.70;;;10.83;;
10725;SDS011;5414;59.782;16.378;2022-11-04T02:39:48;19.90;;;10.70;;
10725;SDS011;5414;59.782;16.378;2022-11-04T02:42:28;17.07;;;10.23;;
10725;SDS011;5414;59.782;16.378;2022-11-04T02:45:01;17.37;;;10.70;;
10725;SDS011;5414;59.782;16.378;2022-11-04T02:47:30;20.73;;;10.37;;
10725;SDS011;5414;59.782;16.378;2022-11-04T02:49:59;18.17;;;10.17;;
10725;SDS011;5414;59.782;16.378;2022-11-04T02:52:32;18.13;;;9.37;;
10725;SDS011;5414;59.782;16.378;2022-11-04T02:55:05;16.23;;;10.43;;
10725;SDS011;5414;59.782;16.378;2022-11-04T02:57:33;15.17;;;9.77;;
10725;SDS011;5414;59.782;16.378;2022-11-04T03:00:00;19.77;;;10.53;;
10725;SDS011;5414;59.782;16.378;2022-11-04T03:02:32;14.70;;;9.63;;
10725;SDS011;5414;59.782;16.378;2022-11-04T03:04:59;14.87;;;9.37;;
10725;SDS011;5414;59.782;16.378;2022-11-04T03:07:28;16.77;;;9.40;;
10725;SDS011;5414;59.782;16.378;2022-11-04T03:10:02;15.70;;;10.57;;
10725;SDS011;5414;59.782;16.378;2022-11-04T03:12:31;17.97;;;9.27;;
10725;SDS011;5414;59.782;16.378;2022-11-04T03:15:00;15.93;;;10.27;;
10725;SDS011;5414;59.782;16.378;2022-11-04T03:19:58;14.37;;;10.30;;
10725;SDS011;5414;59.782;16.378;2022-11-04T03:22:25;19.63;;;11.00;;
10725;SDS011;5414;59.782;16.378;2022-11-04T03:24:53;14.77;;;10.23;;
10725;SDS011;5414;59.782;16.378;2022-11-04T03:30:05;16.50;;;10.73;;
10725;SDS011;5414;59.782;16.378;2022-11-04T03:35:04;15.67;;;10.47;;
10725;SDS011;5414;59.782;16.378;2022-11-04T03:37:32;15.03;;;10.07;;
10725;SDS011;5414;59.782;16.378;2022-11-04T03:39:58;17.93;;;9.73;;
10725;SDS011;5414;59.782;16.378;2022-11-04T03:42:25;16.33;;;9.30;;
10725;SDS011;5414;59.782;16.378;2022-11-04T03:44:52;16.93;;;9.13;;
10725;SDS011;5414;59.782;16.378;2022-11-04T03:47:19;13.23;;;8.83;;
10725;SDS011;5414;59.782;16.378;2022-11-04T03:49:46;16.27;;;9.93;;
10725;SDS011;5414;59.782;16.378;2022-11-04T03:52:13;19.97;;;10.10;;
10725;SDS011;5414;59.782;16.378;2022-11-04T03:54:39;15.93;;;9.80;;
10725;SDS011;5414;59.782;16.378;2022-11-04T04:02:18;14.57;;;9.00;;
10725;SDS011;5414;59.782;16.378;2022-11-04T04:07:11;17.00;;;9.07;;
10725;SDS011;5414;59.782;16.378;2022-11-04T04:09:43;18.30;;;9.67;;
10725;SDS011;5414;59.782;16.378;2022-11-04T04:14:41;17.40;;;9.97;;
10725;SDS011;5414;59.782;16.378;2022-11-04T04:19:34;15.17;;;8.83;;
10725;SDS011;5414;59.782;16.378;2022-11-04T04:22:02;16.30;;;9.50;;
10725;SDS011;5414;59.782;16.378;2022-11-04T04:24:31;16.07;;;9.00;;
10725;SDS011;5414;59.782;16.378;2022-11-04T04:27:18;13.90;;;8.63;;
10725;SDS011;5414;59.782;16.378;2022-11-04T04:30:15;19.17;;;8.57;;
10725;SDS011;5414;59.782;16.378;2022-11-04T04:32:45;13.63;;;8.10;;
10725;SDS011;5414;59.782;16.378;2022-11-04T04:35:12;14.80;;;8.07;;
10725;SDS011;5414;59.782;16.378;2022-11-04T04:37:59;14.53;;;7.40;;
10725;SDS011;5414;59.782;16.378;2022-11-04T04:40:49;14.03;;;7.60;;
10725;SDS011;5414;59.782;16.378;2022-11-04T04:43:36;13.33;;;7.67;;
10725;SDS011;5414;59.782;16.378;2022-11-04T04:46:22;14.87;;;7.33;;
10725;SDS011;5414;59.782;16.378;2022-11-04T04:48:48;19.10;;;7.93;;
10725;SDS011;5414;59.782;16.378;2022-11-04T04:51:14;15.33;;;7.80;;
10725;SDS011;5414;59.782;16.378;2022-11-04T04:53:40;13.50;;;7.30;;
10725;SDS011;5414;59.782;16.378;2022-11-04T04:56:06;10.53;;;7.37;;
10725;SDS011;5414;59.782;16.378;2022-11-04T04:58:32;11.07;;;7.17;;
10725;SDS011;5414;59.782;16.378;2022-11-04T05:00:58;15.07;;;7.87;;
10725;SDS011;5414;59.782;16.378;2022-11-04T05:03:24;12.83;;;7.80;;
10725;SDS011;5414;59.782;16.378;2022-11-04T05:05:50;14.73;;;7.60;;
10725;SDS011;5414;59.782;16.378;2022-11-04T05:08:16;15.40;;;7.10;;
10725;SDS011;5414;59.782;16.378;2022-11-04T05:10:42;16.33;;;8.33;;
10725;SDS011;5414;59.782;16.378;2022-11-04T05:13:08;15.07;;;8.07;;
10725;SDS011;5414;59.782;16.378;2022-11-04T05:15:49;14.23;;;8.30;;
10725;SDS011;5414;59.782;16.378;2022-11-04T05:18:16;15.97;;;8.33;;
10725;SDS011;5414;59.782;16.378;2022-11-04T05:20:42;15.70;;;7.77;;
10725;SDS011;5414;59.782;16.378;2022-11-04T05:23:08;13.00;;;7.80;;
10725;SDS011;5414;59.782;16.378;2022-11-04T05:25:36;15.53;;;8.63;;
10725;SDS011;5414;59.782;16.378;2022-11-04T05:28:03;14.27;;;8.13;;
10725;SDS011;5414;59.782;16.378;2022-11-04T05:30:30;15.67;;;8.23;;
10725;SDS011;5414;59.782;16.378;2022-11-04T05:32:56;15.17;;;8.93;;
10725;SDS011;5414;59.782;16.378;2022-11-04T05:35:22;16.07;;;9.90;;
10725;SDS011;5414;59.782;16.378;2022-11-04T05:37:48;17.33;;;9.40;;
10725;SDS011;5414;59.782;16.378;2022-11-04T05:40:14;20.37;;;8.80;;
10725;SDS011;5414;59.782;16.378;2022-11-04T05:42:40;17.17;;;8.87;;
10725;SDS011;5414;59.782;16.378;2022-11-04T05:45:06;15.27;;;9.87;;
10725;SDS011;5414;59.782;16.378;2022-11-04T05:47:32;14.87;;;8.87;;
10725;SDS011;5414;59.782;16.378;2022-11-04T05:49:58;14.30;;;9.10;;
10725;SDS011;5414;59.782;16.378;2022-11-04T05:52:24;13.27;;;9.23;;
10725;SDS011;5414;59.782;16.378;2022-11-04T05:54:50;18.43;;;9.47;;
10725;SDS011;5414;59.782;16.378;2022-11-04T05:57:16;19.03;;;8.77;;
10725;SDS011;5414;59.782;16.378;2022-11-04T05:59:42;15.57;;;8.87;;
10725;SDS011;5414;59.782;16.378;2022-11-04T06:02:08;18.00;;;9.10;;
10725;SDS011;5414;59.782;16.378;2022-11-04T06:04:35;17.63;;;8.90;;
10725;SDS011;5414;59.782;16.378;2022-11-04T06:07:01;15.57;;;8.70;;
10725;SDS011;5414;59.782;16.378;2022-11-04T06:09:27;15.67;;;8.80;;
10725;SDS011;5414;59.782;16.378;2022-11-04T06:12:13;14.47;;;8.23;;
10725;SDS011;5414;59.782;16.378;2022-11-04T06:14:41;17.97;;;9.07;;
10725;SDS011;5414;59.782;16.378;2022-11-04T06:17:07;14.47;;;8.27;;
10725;SDS011;5414;59.782;16.378;2022-11-04T06:19:35;15.07;;;8.07;;
10725;SDS011;5414;59.782;16.378;2022-11-04T06:22:01;13.00;;;8.40;;
10725;SDS011;5414;59.782;16.378;2022-11-04T06:24:28;15.27;;;8.43;;
10725;SDS011;5414;59.782;16.378;2022-11-04T06:26:54;16.40;;;8.67;;
10725;SDS011;5414;59.782;16.378;2022-11-04T06:29:20;17.67;;;8.43;;
10725;SDS011;5414;59.782;16.378;2022-11-04T06:31:46;15.13;;;8.30;;
10725;SDS011;5414;59.782;16.378;2022-11-04T06:34:12;14.53;;;7.73;;
10725;SDS011;5414;59.782;16.378;2022-11-04T06:36:38;14.93;;;8.50;;
10725;SDS011;5414;59.782;16.378;2022-11-04T06:39:04;14.23;;;8.67;;
10725;SDS011;5414;59.782;16.378;2022-11-04T06:41:30;16.17;;;8.50;;
10725;SDS011;5414;59.782;16.378;2022-11-04T06:43:56;18.67;;;8.70;;
10725;SDS011;5414;59.782;16.378;2022-11-04T06:46:23;20.53;;;8.13;;
10725;SDS011;5414;59.782;16.378;2022-11-04T06:48:50;17.83;;;8.33;;
10725;SDS011;5414;59.782;16.378;2022-11-04T06:51:16;13.63;;;7.23;;
10725;SDS011;5414;59.782;16.378;2022-11-04T06:53:42;14.93;;;7.50;;
10725;SDS011;5414;59.782;16.378;2022-11-04T06:56:08;15.47;;;7.90;;
10725;SDS011;5414;59.782;16.378;2022-11-04T06:58:34;15.80;;;7.10;;
10725;SDS011;5414;59.782;16.378;2022-11-04T07:01:00;12.53;;;6.60;;
10725;SDS011;5414;59.782;16.378;2022-11-04T07:03:26;14.60;;;7.13;;
10725;SDS011;5414;59.782;16.378;2022-11-04T07:05:53;12.93;;;7.10;;
10725;SDS011;5414;59.782;16.378;2022-11-04T07:08:20;15.63;;;7.60;;
10725;SDS011;5414;59.782;16.378;2022-11-04T07:10:46;10.70;;;6.63;;
10725;SDS011;5414;59.782;16.378;2022-11-04T07:13:12;13.07;;;6.37;;
10725;SDS011;5414;59.782;16.378;2022-11-04T07:15:40;15.43;;;6.37;;
10725;SDS011;5414;59.782;16.378;2022-11-04T07:18:06;11.73;;;5.80;;
10725;SDS011;5414;59.782;16.378;2022-11-04T07:20:33;12.83;;;6.60;;
10725;SDS011;5414;59.782;16.378;2022-11-04T07:22:59;13.07;;;6.70;;
10725;SDS011;5414;59.782;16.378;2022-11-04T07:25:25;13.07;;;5.90;;
10725;SDS011;5414;59.782;16.378;2022-11-04T07:27:51;14.37;;;5.87;;
10725;SDS011;5414;59.782;16.378;2022-11-04T07:30:17;11.77;;;6.50;;
10725;SDS011;5414;59.782;16.378;2022-11-04T07:32:46;12.30;;;5.93;;
10725;SDS011;5414;59.782;16.378;2022-11-04T07:35:12;10.80;;;6.50;;
10725;SDS011;5414;59.782;16.378;2022-11-04T07:37:38;12.20;;;6.30;;
10725;SDS011;5414;59.782;16.378;2022-11-04T07:40:04;12.93;;;6.37;;
10725;SDS011;5414;59.782;16.378;2022-11-04T07:42:30;11.47;;;6.53;;
10725;SDS011;5414;59.782;16.378;2022-11-04T07:44:57;14.73;;;6.57;;
10725;SDS011;5414;59.782;16.378;2022-11-04T07:47:23;13.43;;;6.60;;
10725;SDS011;5414;59.782;16.378;2022-11-04T07:49:49;13.20;;;6.10;;
10725;SDS011;5414;59.782;16.378;2022-11-04T07:52:15;17.27;;;6.67;;
10725;SDS011;5414;59.782;16.378;2022-11-04T07:54:41;16.50;;;6.57;;
10725;SDS011;5414;59.782;16.378;2022-11-04T07:57:07;12.37;;;5.60;;
10725;SDS011;5414;59.782;16.378;2022-11-04T07:59:33;15.03;;;5.80;;
10725;SDS011;5414;59.782;16.378;2022-11-04T08:01:59;12.57;;;5.97;;
10725;SDS011;5414;59.782;16.378;2022-11-04T08:04:25;12.00;;;6.10;;
10725;SDS011;5414;59.782;16.378;2022-11-04T08:06:51;13.20;;;6.17;;
10725;SDS011;5414;59.782;16.378;2022-11-04T08:09:17;13.43;;;6.03;;
10725;SDS011;5414;59.782;16.378;2022-11-04T08:11:43;12.47;;;6.00;;
10725;SDS011;5414;59.782;16.378;2022-11-04T08:14:09;10.87;;;5.43;;
10725;SDS011;5414;59.782;16.378;2022-11-04T08:16:35;9.60;;;5.73;;
10725;SDS011;5414;59.782;16.378;2022-11-04T08:19:01;10.63;;;5.30;;
10725;SDS011;5414;59.782;16.378;2022-11-04T08:21:28;9.67;;;5.30;;
10725;SDS011;5414;59.782;16.378;2022-11-04T08:23:54;8.73;;;4.93;;
10725;SDS011;5414;59.782;16.378;2022-11-04T08:26:20;12.33;;;5.43;;
10725;SDS011;5414;59.782;16.378;2022-11-04T08:28:51;9.77;;;4.87;;
10725;SDS011;5414;59.782;16.378;2022-11-04T08:33:43;12.03;;;5.20;;
10725;SDS011;5414;59.782;16.378;2022-11-04T08:36:16;10.97;;;4.77;;
10725;SDS011;5414;59.782;16.378;2022-11-04T08:38:43;8.43;;;4.77;;
10725;SDS011;5414;59.782;16.378;2022-11-04T08:41:09;10.93;;;4.57;;
10725;SDS011;5414;59.782;16.378;2022-11-04T08:43:36;10.13;;;4.67;;
10725;SDS011;5414;59.782;16.378;2022-11-04T08:46:03;10.23;;;5.27;;
10725;SDS011;5414;59.782;16.378;2022-11-04T08:48:30;11.83;;;4.47;;
10725;SDS011;5414;59.782;16.378;2022-11-04T08:50:56;13.47;;;4.33;;
10725;SDS011;5414;59.782;16.378;2022-11-04T08:53:26;8.50;;;4.57;;
10725;SDS011;5414;59.782;16.378;2022-11-04T08:55:52;7.40;;;3.90;;
10725;SDS011;5414;59.782;16.378;2022-11-04T08:58:18;9.63;;;4.10;;
10725;SDS011;5414;59.782;16.378;2022-11-04T09:00:45;10.20;;;4.40;;
10725;SDS011;5414;59.782;16.378;2022-11-04T09:03:11;8.33;;;4.13;;
10725;SDS011;5414;59.782;16.378;2022-11-04T09:05:38;12.20;;;4.00;;
10725;SDS011;5414;59.782;16.378;2022-11-04T09:08:09;9.13;;;3.80;;
10725;SDS011;5414;59.782;16.378;2022-11-04T09:10:35;8.07;;;3.63;;
10725;SDS011;5414;59.782;16.378;2022-11-04T09:13:01;8.80;;;4.13;;
10725;SDS011;5414;59.782;16.378;2022-11-04T09:15:27;10.40;;;3.47;;
10725;SDS011;5414;59.782;16.378;2022-11-04T09:17:53;9.40;;;3.90;;
10725;SDS011;5414;59.782;16.378;2022-11-04T09:20:19;11.20;;;3.90;;
10725;SDS011;5414;59.782;16.378;2022-11-04T09:22:45;7.50;;;3.80;;
10725;SDS011;5414;59.782;16.378;2022-11-04T09:25:14;7.43;;;3.13;;
10725;SDS011;5414;59.782;16.378;2022-11-04T09:27:40;9.17;;;3.43;;
10725;SDS011;5414;59.782;16.378;2022-11-04T09:30:06;8.23;;;3.07;;
10725;SDS011;5414;59.782;16.378;2022-11-04T09:32:32;7.70;;;3.07;;
10725;SDS011;5414;59.782;16.378;2022-11-04T09:34:58;8.30;;;3.47;;
10725;SDS011;5414;59.782;16.378;2022-11-04T09:37:24;7.30;;;3.17;;
10725;SDS011;5414;59.782;16.378;2022-11-04T09:39:50;8.57;;;3.40;;
10725;SDS011;5414;59.782;16.378;2022-11-04T09:47:17;6.93;;;2.80;;
10725;SDS011;5414;59.782;16.378;2022-11-04T09:49:44;7.33;;;3.00;;
10725;SDS011;5414;59.782;16.378;2022-11-04T09:52:18;7.20;;;2.97;;
10725;SDS011;5414;59.782;16.378;2022-11-04T09:57:16;6.80;;;2.97;;
10725;SDS011;5414;59.782;16.378;2022-11-04T09:59:43;10.07;;;3.00;;
10725;SDS011;5414;59.782;16.378;2022-11-04T10:05:09;6.67;;;2.83;;
10725;SDS011;5414;59.782;16.378;2022-11-04T10:23:42;6.47;;;2.70;;
10725;SDS011;5414;59.782;16.378;2022-11-04T10:26:27;7.30;;;2.83;;
10725;SDS011;5414;59.782;16.378;2022-11-04T10:29:00;8.20;;;2.60;;
10725;SDS011;5414;59.782;16.378;2022-11-04T10:31:27;6.33;;;2.27;;
10725;SDS011;5414;59.782;16.378;2022-11-04T10:33:54;5.07;;;2.60;;
10725;SDS011;5414;59.782;16.378;2022-11-04T10:36:22;6.73;;;2.90;;
10725;SDS011;5414;59.782;16.378;2022-11-04T10:38:52;5.37;;;2.33;;
10725;SDS011;5414;59.782;16.378;2022-11-04T10:43:48;8.47;;;2.37;;
10725;SDS011;5414;59.782;16.378;2022-11-04T10:46:28;7.60;;;2.60;;
10725;SDS011;5414;59.782;16.378;2022-11-04T10:49:01;11.70;;;2.60;;
10725;SDS011;5414;59.782;16.378;2022-11-04T10:51:30;7.70;;;2.63;;
10725;SDS011;5414;59.782;16.378;2022-11-04T10:53:57;9.63;;;2.60;;
10725;SDS011;5414;59.782;16.378;2022-11-04T10:56:30;8.03;;;2.53;;
10725;SDS011;5414;59.782;16.378;2022-11-04T10:58:59;7.80;;;2.47;;
10725;SDS011;5414;59.782;16.378;2022-11-04T11:01:29;8.47;;;2.40;;
10725;SDS011;5414;59.782;16.378;2022-11-04T11:03:55;8.13;;;2.43;;
10725;SDS011;5414;59.782;16.378;2022-11-04T11:08:56;5.27;;;2.00;;
10725;SDS011;5414;59.782;16.378;2022-11-04T11:14:03;6.97;;;2.40;;
10725;SDS011;5414;59.782;16.378;2022-11-04T11:16:29;7.33;;;2.30;;
10725;SDS011;5414;59.782;16.378;2022-11-04T11:21:48;9.70;;;2.17;;
10725;SDS011;5414;59.782;16.378;2022-11-04T11:24:24;6.47;;;2.10;;
10725;SDS011;5414;59.782;16.378;2022-11-04T11:26:51;7.10;;;1.97;;
10725;SDS011;5414;59.782;16.378;2022-11-04T11:29:19;6.27;;;2.30;;
10725;SDS011;5414;59.782;16.378;2022-11-04T11:31:46;4.63;;;2.23;;
10725;SDS011;5414;59.782;16.378;2022-11-04T11:37:20;5.10;;;1.70;;
10725;SDS011;5414;59.782;16.378;2022-11-04T11:39:47;7.07;;;2.00;;
10725;SDS011;5414;59.782;16.378;2022-11-04T11:42:15;4.60;;;2.03;;
10725;SDS011;5414;59.782;16.378;2022-11-04T11:44:49;4.83;;;1.90;;
10725;SDS011;5414;59.782;16.378;2022-11-04T11:47:20;5.70;;;1.77;;
10725;SDS011;5414;59.782;16.378;2022-11-04T11:50:03;6.53;;;2.03;;
10725;SDS011;5414;59.782;16.378;2022-11-04T12:00:14;6.77;;;2.10;;
10725;SDS011;5414;59.782;16.378;2022-11-04T12:05:15;5.67;;;2.07;;
10725;SDS011;5414;59.782;16.378;2022-11-04T12:07:53;5.60;;;2.10;;
10725;SDS011;5414;59.782;16.378;2022-11-04T12:10:38;5.27;;;1.63;;
10725;SDS011;5414;59.782;16.378;2022-11-04T12:13:08;4.83;;;1.80;;
10725;SDS011;5414;59.782;16.378;2022-11-04T12:18:37;6.07;;;1.87;;
10725;SDS011;5414;59.782;16.378;2022-11-04T12:23:38;5.10;;;1.83;;
10725;SDS011;5414;59.782;16.378;2022-11-04T12:34:08;5.00;;;1.70;;
10725;SDS011;5414;59.782;16.378;2022-11-04T12:44:27;7.13;;;1.73;;
10725;SDS011;5414;59.782;16.378;2022-11-04T12:46:59;4.60;;;1.77;;
10725;SDS011;5414;59.782;16.378;2022-11-04T12:51:57;6.43;;;2.37;;
10725;SDS011;5414;59.782;16.378;2022-11-04T13:02:22;4.17;;;1.77;;
10725;SDS011;5414;59.782;16.378;2022-11-04T13:07:40;3.80;;;1.60;;
10725;SDS011;5414;59.782;16.378;2022-11-04T13:10:14;4.40;;;1.80;;
10725;SDS011;5414;59.782;16.378;2022-11-04T13:12:42;5.80;;;1.90;;
10725;SDS011;5414;59.782;16.378;2022-11-04T13:15:14;3.80;;;1.47;;
10725;SDS011;5414;59.782;16.378;2022-11-04T13:17:42;4.13;;;1.60;;
10725;SDS011;5414;59.782;16.378;2022-11-04T13:22:38;4.87;;;1.80;;
10725;SDS011;5414;59.782;16.378;2022-11-04T13:25:18;6.10;;;2.00;;
10725;SDS011;5414;59.782;16.378;2022-11-04T13:27:47;8.07;;;2.27;;
10725;SDS011;5414;59.782;16.378;2022-11-04T13:32:47;4.97;;;1.90;;
10725;SDS011;5414;59.782;16.378;2022-11-04T13:35:19;6.10;;;1.83;;
10725;SDS011;5414;59.782;16.378;2022-11-04T13:37:54;5.53;;;1.73;;
10725;SDS011;5414;59.782;16.378;2022-11-04T13:40:26;6.30;;;2.03;;
10725;SDS011;5414;59.782;16.378;2022-11-04T13:42:56;6.63;;;1.80;;
10725;SDS011;5414;59.782;16.378;2022-11-04T13:45:45;5.60;;;1.90;;
10725;SDS011;5414;59.782;16.378;2022-11-04T13:48:12;4.67;;;1.70;;
10725;SDS011;5414;59.782;16.378;2022-11-04T13:50:39;6.43;;;1.97;;
10725;SDS011;5414;59.782;16.378;2022-11-04T13:53:06;6.80;;;2.03;;
10725;SDS011;5414;59.782;16.378;2022-11-04T13:55:33;4.57;;;1.70;;
10725;SDS011;5414;59.782;16.378;2022-11-04T13:58:03;8.37;;;2.03;;
10725;SDS011;5414;59.782;16.378;2022-11-04T14:00:30;5.83;;;1.90;;
10725;SDS011;5414;59.782;16.378;2022-11-04T14:03:36;5.33;;;1.87;;
10725;SDS011;5414;59.782;16.378;2022-11-04T14:08:23;4.53;;;1.80;;
10725;SDS011;5414;59.782;16.378;2022-11-04T14:18:31;4.73;;;1.77;;
10725;SDS011;5414;59.782;16.378;2022-11-04T14:21:13;6.37;;;2.03;;
10725;SDS011;5414;59.782;16.378;2022-11-04T14:23:40;5.33;;;1.97;;
10725;SDS011;5414;59.782;16.378;2022-11-04T14:26:08;5.83;;;2.27;;
10725;SDS011;5414;59.782;16.378;2022-11-04T14:28:34;4.90;;;1.67;;
10725;SDS011;5414;59.782;16.378;2022-11-04T14:31:02;7.17;;;1.80;;
10725;SDS011;5414;59.782;16.378;2022-11-04T14:35:55;6.73;;;1.97;;
10725;SDS011;5414;59.782;16.378;2022-11-04T14:40:49;5.20;;;1.80;;
10725;SDS011;5414;59.782;16.378;2022-11-04T14:43:28;4.63;;;1.83;;
10725;SDS011;5414;59.782;16.378;2022-11-04T14:45:56;4.73;;;1.93;;
10725;SDS011;5414;59.782;16.378;2022-11-04T14:48:22;5.40;;;1.80;;
10725;SDS011;5414;59.782;16.378;2022-11-04T14:50:50;4.70;;;1.83;;
10725;SDS011;5414;59.782;16.378;2022-11-04T14:53:21;5.77;;;1.80;;
10725;SDS011;5414;59.782;16.378;2022-11-04T14:56:00;4.30;;;1.73;;
10725;SDS011;5414;59.782;16.378;2022-11-04T14:58:26;4.17;;;1.77;;
10725;SDS011;5414;59.782;16.378;2022-11-04T15:00:55;9.13;;;2.23;;
10725;SDS011;5414;59.782;16.378;2022-11-04T15:03:27;5.00;;;2.20;;
10725;SDS011;5414;59.782;16.378;2022-11-04T15:05:57;5.63;;;2.17;;
10725;SDS011;5414;59.782;16.378;2022-11-04T15:08:29;4.70;;;2.00;;
10725;SDS011;5414;59.782;16.378;2022-11-04T15:11:02;6.60;;;1.87;;
10725;SDS011;5414;59.782;16.378;2022-11-04T15:13:31;5.53;;;2.03;;
10725;SDS011;5414;59.782;16.378;2022-11-04T15:15:58;5.83;;;2.30;;
10725;SDS011;5414;59.782;16.378;2022-11-04T15:18:24;7.67;;;2.13;;
10725;SDS011;5414;59.782;16.378;2022-11-04T15:20:57;4.80;;;2.20;;
10725;SDS011;5414;59.782;16.378;2022-11-04T15:23:27;5.23;;;2.03;;
10725;SDS011;5414;59.782;16.378;2022-11-04T15:25:54;4.00;;;1.83;;
10725;SDS011;5414;59.782;16.378;2022-11-04T15:28:27;6.37;;;2.10;;
10725;SDS011;5414;59.782;16.378;2022-11-04T15:30:57;5.90;;;2.30;;
10725;SDS011;5414;59.782;16.378;2022-11-04T15:33:24;6.53;;;2.17;;
10725;SDS011;5414;59.782;16.378;2022-11-04T15:35:51;6.77;;;2.10;;
10725;SDS011;5414;59.782;16.378;2022-11-04T15:38:17;7.43;;;2.10;;
10725;SDS011;5414;59.782;16.378;2022-11-04T15:40:44;6.33;;;2.20;;
10725;SDS011;5414;59.782;16.378;2022-11-04T15:43:10;6.13;;;2.27;;
10725;SDS011;5414;59.782;16.378;2022-11-04T15:53:26;5.10;;;2.10;;
10725;SDS011;5414;59.782;16.378;2022-11-04T15:55:52;4.00;;;1.70;;
10725;SDS011;5414;59.782;16.378;2022-11-04T15:58:19;5.60;;;2.27;;
10725;SDS011;5414;59.782;16.378;2022-11-04T16:00:55;6.27;;;2.57;;
10725;SDS011;5414;59.782;16.378;2022-11-04T16:03:21;7.70;;;2.67;;
10725;SDS011;5414;59.782;16.378;2022-11-04T16:06:04;6.90;;;2.33;;
10725;SDS011;5414;59.782;16.378;2022-11-04T16:08:31;6.43;;;2.10;;
10725;SDS011;5414;59.782;16.378;2022-11-04T16:11:08;5.97;;;2.40;;
10725;SDS011;5414;59.782;16.378;2022-11-04T16:13:34;8.60;;;2.40;;
10725;SDS011;5414;59.782;16.378;2022-11-04T16:21:13;5.63;;;2.40;;
10725;SDS011;5414;59.782;16.378;2022-11-04T16:23:47;8.10;;;2.20;;
10725;SDS011;5414;59.782;16.378;2022-11-04T16:26:13;5.70;;;2.23;;
10725;SDS011;5414;59.782;16.378;2022-11-04T16:28:39;4.40;;;2.30;;
10725;SDS011;5414;59.782;16.378;2022-11-04T16:33:47;8.37;;;1.97;;
10725;SDS011;5414;59.782;16.378;2022-11-04T16:36:14;6.47;;;2.50;;
10725;SDS011;5414;59.782;16.378;2022-11-04T16:39:00;8.33;;;2.60;;
10725;SDS011;5414;59.782;16.378;2022-11-04T16:41:34;5.73;;;2.57;;
10725;SDS011;5414;59.782;16.378;2022-11-04T16:44:01;8.30;;;2.27;;
10725;SDS011;5414;59.782;16.378;2022-11-04T16:46:27;8.27;;;2.43;;
10725;SDS011;5414;59.782;16.378;2022-11-04T16:48:53;6.67;;;2.27;;
10725;SDS011;5414;59.782;16.378;2022-11-04T16:51:21;7.33;;;2.33;;
10725;SDS011;5414;59.782;16.378;2022-11-04T16:53:47;7.93;;;2.20;;
10725;SDS011;5414;59.782;16.378;2022-11-04T16:56:14;7.87;;;2.40;;
10725;SDS011;5414;59.782;16.378;2022-11-04T16:58:40;8.03;;;2.47;;
10725;SDS011;5414;59.782;16.378;2022-11-04T17:01:07;6.97;;;2.33;;
10725;SDS011;5414;59.782;16.378;2022-11-04T17:03:33;9.47;;;2.47;;
10725;SDS011;5414;59.782;16.378;2022-11-04T17:05:59;7.90;;;2.27;;
10725;SDS011;5414;59.782;16.378;2022-11-04T17:08:25;7.10;;;2.50;;
10725;SDS011;5414;59.782;16.378;2022-11-04T17:10:52;6.23;;;2.53;;
10725;SDS011;5414;59.782;16.378;2022-11-04T17:13:18;9.40;;;2.53;;
10725;SDS011;5414;59.782;16.378;2022-11-04T17:15:44;8.90;;;2.70;;
10725;SDS011;5414;59.782;16.378;2022-11-04T17:18:11;4.70;;;2.50;;
10725;SDS011;5414;59.782;16.378;2022-11-04T17:20:39;6.73;;;2.30;;
10725;SDS011;5414;59.782;16.378;2022-11-04T17:23:05;7.10;;;2.73;;
10725;SDS011;5414;59.782;16.378;2022-11-04T17:25:31;8.10;;;2.73;;
10725;SDS011;5414;59.782;16.378;2022-11-04T17:27:57;7.70;;;2.17;;
10725;SDS011;5414;59.782;16.378;2022-11-04T17:30:23;7.97;;;2.10;;